sensor_id;sensor_type;location;lat;lon;timestamp;temperature;humidity
15160;DHT22;7680;48.800;9.680;2024-03-06T00:01:58;5.90;99.90
15160;DHT22;7680;48.800;9.680;2024-03-06T00:07:01;5.90;99.90
15160;DHT22;7680;48.800;9.680;2024-03-06T00:12:05;6.00;99.90
15160;DHT22;7680;48.800;9.680;2024-03-06T00:17:09;5.90;99.90
15160;DHT22;7680;48.800;9.680;2024-03-06T00:22:13;6.00;99.90
15160;DHT22;7680;48.800;9.680;2024-03-06T00:27:16;5.90;99.90
15160;DHT22;7680;48.800;9.680;2024-03-06T00:32:20;5.90;99.90
15160;DHT22;7680;48.800;9.680;2024-03-06T00:37:25;5.80;99.90
15160;DHT22;7680;48.800;9.680;2024-03-06T00:42:28;5.90;99.90
15160;DHT22;7680;48.800;9.680;2024-03-06T00:47:33;5.80;99.90
15160;DHT22;7680;48.800;9.680;2024-03-06T00:52:36;5.80;99.90
15160;DHT22;7680;48.800;9.680;2024-03-06T00:57:40;5.90;99.90
15160;DHT22;7680;48.800;9.680;2024-03-06T01:02:44;5.90;99.90
15160;DHT22;7680;48.800;9.680;2024-03-06T01:07:47;5.90;99.90
15160;DHT22;7680;48.800;9.680;2024-03-06T01:12:51;5.90;99.90
15160;DHT22;7680;48.800;9.680;2024-03-06T01:17:55;5.90;99.90
15160;DHT22;7680;48.800;9.680;2024-03-06T01:22:59;5.90;99.90
15160;DHT22;7680;48.800;9.680;2024-03-06T01:28:03;5.80;99.90
15160;DHT22;7680;48.800;9.680;2024-03-06T01:33:08;5.80;99.90
15160;DHT22;7680;48.800;9.680;2024-03-06T01:38:11;5.80;99.90
15160;DHT22;7680;48.800;9.680;2024-03-06T01:43:20;5.80;99.90
15160;DHT22;7680;48.800;9.680;2024-03-06T01:48:27;5.80;99.90
15160;DHT22;7680;48.800;9.680;2024-03-06T01:53:32;5.80;99.90
15160;DHT22;7680;48.800;9.680;2024-03-06T01:58:36;5.80;99.90
15160;DHT22;7680;48.800;9.680;2024-03-06T02:03:41;5.80;99.90
15160;DHT22;7680;48.800;9.680;2024-03-06T02:08:44;5.80;99.90
15160;DHT22;7680;48.800;9.680;2024-03-06T02:13:49;5.80;99.90
15160;DHT22;7680;48.800;9.680;2024-03-06T02:18:54;5.80;99.90
15160;DHT22;7680;48.800;9.680;2024-03-06T02:24:00;5.80;99.90
15160;DHT22;7680;48.800;9.680;2024-03-06T02:29:03;5.80;99.90
15160;DHT22;7680;48.800;9.680;2024-03-06T02:34:07;5.80;99.90
15160;DHT22;7680;48.800;9.680;2024-03-06T02:39:12;5.70;99.90
15160;DHT22;7680;48.800;9.680;2024-03-06T02:44:16;5.60;99.90
15160;DHT22;7680;48.800;9.680;2024-03-06T02:49:20;5.60;99.90
15160;DHT22;7680;48.800;9.680;2024-03-06T02:54:24;5.70;99.90
15160;DHT22;7680;48.800;9.680;2024-03-06T02:59:27;5.70;99.90
15160;DHT22;7680;48.800;9.680;2024-03-06T03:04:31;5.70;99.90
15160;DHT22;7680;48.800;9.680;2024-03-06T03:09:35;5.70;99.90
15160;DHT22;7680;48.800;9.680;2024-03-06T03:14:40;5.70;99.90
15160;DHT22;7680;48.800;9.680;2024-03-06T03:19:43;5.70;99.90
15160;DHT22;7680;48.800;9.680;2024-03-06T03:24:48;5.70;99.90
15160;DHT22;7680;48.800;9.680;2024-03-06T03:29:51;5.60;99.90
15160;DHT22;7680;48.800;9.680;2024-03-06T03:34:54;5.60;99.90
15160;DHT22;7680;48.800;9.680;2024-03-06T03:39:59;5.60;99.90
15160;DHT22;7680;48.800;9.680;2024-03-06T03:45:02;5.60;99.90
15160;DHT22;7680;48.800;9.680;2024-03-06T03:50:06;5.70;99.90
15160;DHT22;7680;48.800;9.680;2024-03-06T03:55:13;5.70;99.90
15160;DHT22;7680;48.800;9.680;2024-03-06T04:00:18;5.70;99.90
15160;DHT22;7680;48.800;9.680;2024-03-06T04:05:22;5.70;99.90
15160;DHT22;7680;48.800;9.680;2024-03-06T04:10:27;5.70;99.90
15160;DHT22;7680;48.800;9.680;2024-03-06T04:15:30;5.70;99.90
15160;DHT22;7680;48.800;9.680;2024-03-06T04:20:33;5.70;99.90
15160;DHT22;7680;48.800;9.680;2024-03-06T04:25:38;5.60;99.90
15160;DHT22;7680;48.800;9.680;2024-03-06T04:30:42;5.70;99.90
15160;DHT22;7680;48.800;9.680;2024-03-06T04:35:46;5.70;99.90
15160;DHT22;7680;48.800;9.680;2024-03-06T04:40:50;5.60;99.90
15160;DHT22;7680;48.800;9.680;2024-03-06T04:45:53;5.60;99.90
15160;DHT22;7680;48.800;9.680;2024-03-06T04:50:57;5.60;99.90
15160;DHT22;7680;48.800;9.680;2024-03-06T04:56:02;5.60;99.90
15160;DHT22;7680;48.800;9.680;2024-03-06T05:01:05;5.60;99.90
15160;DHT22;7680;48.800;9.680;2024-03-06T05:06:09;5.60;99.90
15160;DHT22;7680;48.800;9.680;2024-03-06T05:11:31;5.60;99.90
15160;DHT22;7680;48.800;9.680;2024-03-06T05:16:52;5.70;99.90
15160;DHT22;7680;48.800;9.680;2024-03-06T05:22:13;5.70;99.90
15160;DHT22;7680;48.800;9.680;2024-03-06T05:27:35;5.70;99.90
15160;DHT22;7680;48.800;9.680;2024-03-06T05:32:56;5.70;99.90
15160;DHT22;7680;48.800;9.680;2024-03-06T05:38:17;5.70;99.90
15160;DHT22;7680;48.800;9.680;2024-03-06T05:43:39;5.70;99.90
15160;DHT22;7680;48.800;9.680;2024-03-06T05:49:00;5.70;99.90
15160;DHT22;7680;48.800;9.680;2024-03-06T05:54:21;5.70;99.90
15160;DHT22;7680;48.800;9.680;2024-03-06T05:59:44;5.60;99.90
15160;DHT22;7680;48.800;9.680;2024-03-06T06:04:48;5.70;99.90
15160;DHT22;7680;48.800;9.680;2024-03-06T06:10:11;5.60;99.90
15160;DHT22;7680;48.800;9.680;2024-03-06T06:15:19;5.70;99.90
15160;DHT22;7680;48.800;9.680;2024-03-06T06:20:22;5.70;99.90
15160;DHT22;7680;48.800;9.680;2024-03-06T06:25:26;5.60;99.90
15160;DHT22;7680;48.800;9.680;2024-03-06T06:30:31;5.70;99.90
15160;DHT22;7680;48.800;9.680;2024-03-06T06:35:35;5.70;99.90
15160;DHT22;7680;48.800;9.680;2024-03-06T06:40:38;5.70;99.90
15160;DHT22;7680;48.800;9.680;2024-03-06T06:45:44;5.70;99.90
15160;DHT22;7680;48.800;9.680;2024-03-06T06:50:47;5.70;99.90
15160;DHT22;7680;48.800;9.680;2024-03-06T06:55:50;5.70;99.90
15160;DHT22;7680;48.800;9.680;2024-03-06T07:00:55;5.80;99.90
15160;DHT22;7680;48.800;9.680;2024-03-06T07:05:59;5.80;99.90
15160;DHT22;7680;48.800;9.680;2024-03-06T07:11:02;5.80;99.90
15160;DHT22;7680;48.800;9.680;2024-03-06T07:16:08;5.80;99.90
15160;DHT22;7680;48.800;9.680;2024-03-06T07:21:11;5.90;99.90
15160;DHT22;7680;48.800;9.680;2024-03-06T07:26:15;5.90;99.90
15160;DHT22;7680;48.800;9.680;2024-03-06T07:31:19;6.00;99.90
15160;DHT22;7680;48.800;9.680;2024-03-06T07:36:23;6.00;99.90
15160;DHT22;7680;48.800;9.680;2024-03-06T07:41:26;6.00;99.90
15160;DHT22;7680;48.800;9.680;2024-03-06T07:46:30;6.00;99.90
15160;DHT22;7680;48.800;9.680;2024-03-06T07:51:34;6.00;99.90
15160;DHT22;7680;48.800;9.680;2024-03-06T07:56:37;5.90;99.90
15160;DHT22;7680;48.800;9.680;2024-03-06T08:01:42;6.00;99.90
15160;DHT22;7680;48.800;9.680;2024-03-06T08:06:45;6.00;99.90
15160;DHT22;7680;48.800;9.680;2024-03-06T08:11:48;6.10;99.90
15160;DHT22;7680;48.800;9.680;2024-03-06T08:16:53;6.10;99.90
15160;DHT22;7680;48.800;9.680;2024-03-06T08:21:56;6.10;99.90
15160;DHT22;7680;48.800;9.680;2024-03-06T08:26:59;6.10;99.90
15160;DHT22;7680;48.800;9.680;2024-03-06T08:32:04;6.20;99.90
15160;DHT22;7680;48.800;9.680;2024-03-06T08:37:08;6.20;99.90
15160;DHT22;7680;48.800;9.680;2024-03-06T08:42:12;6.20;99.90
15160;DHT22;7680;48.800;9.680;2024-03-06T08:47:17;6.30;99.90
15160;DHT22;7680;48.800;9.680;2024-03-06T08:52:20;6.30;99.90
15160;DHT22;7680;48.800;9.680;2024-03-06T08:57:23;6.30;99.90
15160;DHT22;7680;48.800;9.680;2024-03-06T09:02:31;6.30;99.90
15160;DHT22;7680;48.800;9.680;2024-03-06T09:07:34;6.30;99.90
15160;DHT22;7680;48.800;9.680;2024-03-06T09:12:40;6.40;99.90
15160;DHT22;7680;48.800;9.680;2024-03-06T09:17:45;6.40;99.90
15160;DHT22;7680;48.800;9.680;2024-03-06T09:22:49;6.50;99.90
15160;DHT22;7680;48.800;9.680;2024-03-06T09:27:55;6.50;99.90
15160;DHT22;7680;48.800;9.680;2024-03-06T09:33:00;6.50;99.90
15160;DHT22;7680;48.800;9.680;2024-03-06T09:38:04;6.60;99.90
15160;DHT22;7680;48.800;9.680;2024-03-06T09:43:07;6.70;99.90
15160;DHT22;7680;48.800;9.680;2024-03-06T09:48:12;6.70;99.90
15160;DHT22;7680;48.800;9.680;2024-03-06T09:53:15;6.80;99.90
15160;DHT22;7680;48.800;9.680;2024-03-06T09:58:20;6.90;99.90
15160;DHT22;7680;48.800;9.680;2024-03-06T10:03:24;6.90;99.90
15160;DHT22;7680;48.800;9.680;2024-03-06T10:08:28;6.90;99.90
15160;DHT22;7680;48.800;9.680;2024-03-06T10:13:32;6.90;99.90
15160;DHT22;7680;48.800;9.680;2024-03-06T10:18:36;6.90;99.90
15160;DHT22;7680;48.800;9.680;2024-03-06T10:23:41;6.90;99.90
15160;DHT22;7680;48.800;9.680;2024-03-06T10:28:44;6.90;99.90
15160;DHT22;7680;48.800;9.680;2024-03-06T10:33:49;6.90;99.90
15160;DHT22;7680;48.800;9.680;2024-03-06T10:38:54;6.90;99.90
15160;DHT22;7680;48.800;9.680;2024-03-06T10:44:00;6.80;99.90
15160;DHT22;7680;48.800;9.680;2024-03-06T10:49:07;6.80;99.90
15160;DHT22;7680;48.800;9.680;2024-03-06T10:54:13;6.80;99.90
15160;DHT22;7680;48.800;9.680;2024-03-06T10:59:19;6.80;99.90
15160;DHT22;7680;48.800;9.680;2024-03-06T11:04:26;6.80;99.90
15160;DHT22;7680;48.800;9.680;2024-03-06T11:09:33;6.80;99.90
15160;DHT22;7680;48.800;9.680;2024-03-06T11:14:38;6.80;99.90
15160;DHT22;7680;48.800;9.680;2024-03-06T11:20:15;6.80;99.90
15160;DHT22;7680;48.800;9.680;2024-03-06T11:31:09;6.90;99.90
15160;DHT22;7680;48.800;9.680;2024-03-06T11:36:18;6.90;99.90
15160;DHT22;7680;48.800;9.680;2024-03-06T11:41:24;6.80;99.90
15160;DHT22;7680;48.800;9.680;2024-03-06T11:46:41;6.80;99.90
15160;DHT22;7680;48.800;9.680;2024-03-06T11:51:46;6.90;99.90
15160;DHT22;7680;48.800;9.680;2024-03-06T11:56:51;6.90;99.90
15160;DHT22;7680;48.800;9.680;2024-03-06T12:01:57;6.90;99.90
15160;DHT22;7680;48.800;9.680;2024-03-06T12:07:05;6.80;99.90
15160;DHT22;7680;48.800;9.680;2024-03-06T12:12:09;6.90;99.90
15160;DHT22;7680;48.800;9.680;2024-03-06T12:17:13;6.90;99.90
15160;DHT22;7680;48.800;9.680;2024-03-06T12:22:19;6.90;99.90
15160;DHT22;7680;48.800;9.680;2024-03-06T12:27:27;6.90;99.90
15160;DHT22;7680;48.800;9.680;2024-03-06T12:32:31;7.00;99.90
15160;DHT22;7680;48.800;9.680;2024-03-06T12:37:35;7.00;99.90
15160;DHT22;7680;48.800;9.680;2024-03-06T12:42:38;7.00;99.90
15160;DHT22;7680;48.800;9.680;2024-03-06T12:47:42;7.00;99.90
15160;DHT22;7680;48.800;9.680;2024-03-06T12:52:48;7.00;99.90
15160;DHT22;7680;48.800;9.680;2024-03-06T12:57:51;7.00;99.90
15160;DHT22;7680;48.800;9.680;2024-03-06T13:02:55;7.00;99.90
15160;DHT22;7680;48.800;9.680;2024-03-06T13:07:59;6.90;99.90
15160;DHT22;7680;48.800;9.680;2024-03-06T13:13:03;7.00;99.90
15160;DHT22;7680;48.800;9.680;2024-03-06T13:18:07;7.10;99.90
15160;DHT22;7680;48.800;9.680;2024-03-06T13:23:12;7.10;99.90
15160;DHT22;7680;48.800;9.680;2024-03-06T13:28:15;7.10;99.90
15160;DHT22;7680;48.800;9.680;2024-03-06T13:33:18;7.10;99.90
15160;DHT22;7680;48.800;9.680;2024-03-06T13:38:23;7.20;99.90
15160;DHT22;7680;48.800;9.680;2024-03-06T13:43:26;7.30;99.90
15160;DHT22;7680;48.800;9.680;2024-03-06T13:48:29;7.30;99.90
15160;DHT22;7680;48.800;9.680;2024-03-06T13:53:34;7.40;99.90
15160;DHT22;7680;48.800;9.680;2024-03-06T13:58:37;7.50;99.90
15160;DHT22;7680;48.800;9.680;2024-03-06T14:03:41;7.50;99.90
15160;DHT22;7680;48.800;9.680;2024-03-06T14:08:45;7.60;99.90
15160;DHT22;7680;48.800;9.680;2024-03-06T14:13:49;7.60;99.90
15160;DHT22;7680;48.800;9.680;2024-03-06T14:18:52;7.60;99.90
15160;DHT22;7680;48.800;9.680;2024-03-06T14:23:59;7.60;99.90
15160;DHT22;7680;48.800;9.680;2024-03-06T14:29:06;7.60;99.90
15160;DHT22;7680;48.800;9.680;2024-03-06T14:34:11;7.70;99.90
15160;DHT22;7680;48.800;9.680;2024-03-06T14:39:17;7.70;99.90
15160;DHT22;7680;48.800;9.680;2024-03-06T14:44:20;7.80;99.90
15160;DHT22;7680;48.800;9.680;2024-03-06T14:49:23;7.80;99.90
15160;DHT22;7680;48.800;9.680;2024-03-06T14:54:28;7.90;99.90
15160;DHT22;7680;48.800;9.680;2024-03-06T14:59:31;7.90;99.90
15160;DHT22;7680;48.800;9.680;2024-03-06T15:04:34;7.90;99.90
15160;DHT22;7680;48.800;9.680;2024-03-06T15:09:39;7.90;99.90
15160;DHT22;7680;48.800;9.680;2024-03-06T15:14:42;7.90;99.90
15160;DHT22;7680;48.800;9.680;2024-03-06T15:19:50;7.90;99.90
15160;DHT22;7680;48.800;9.680;2024-03-06T15:24:55;7.90;99.90
15160;DHT22;7680;48.800;9.680;2024-03-06T15:29:58;7.90;99.90
15160;DHT22;7680;48.800;9.680;2024-03-06T15:35:01;7.80;99.90
15160;DHT22;7680;48.800;9.680;2024-03-06T15:40:08;7.80;99.90
15160;DHT22;7680;48.800;9.680;2024-03-06T15:45:12;7.80;99.90
15160;DHT22;7680;48.800;9.680;2024-03-06T15:50:15;7.70;99.90
15160;DHT22;7680;48.800;9.680;2024-03-06T15:55:20;7.70;99.90
15160;DHT22;7680;48.800;9.680;2024-03-06T16:00:23;7.70;99.90
15160;DHT22;7680;48.800;9.680;2024-03-06T16:05:27;7.70;99.90
15160;DHT22;7680;48.800;9.680;2024-03-06T16:10:31;7.70;99.90
15160;DHT22;7680;48.800;9.680;2024-03-06T16:15:35;7.70;99.90
15160;DHT22;7680;48.800;9.680;2024-03-06T16:20:38;7.70;99.90
15160;DHT22;7680;48.800;9.680;2024-03-06T16:25:44;7.70;99.90
15160;DHT22;7680;48.800;9.680;2024-03-06T16:30:47;7.60;99.90
15160;DHT22;7680;48.800;9.680;2024-03-06T16:35:51;7.60;99.90
15160;DHT22;7680;48.800;9.680;2024-03-06T16:40:56;7.60;99.90
15160;DHT22;7680;48.800;9.680;2024-03-06T16:45:59;7.60;99.90
15160;DHT22;7680;48.800;9.680;2024-03-06T16:51:03;7.50;99.90
15160;DHT22;7680;48.800;9.680;2024-03-06T16:56:07;7.50;99.90
15160;DHT22;7680;48.800;9.680;2024-03-06T17:01:10;7.40;99.90
15160;DHT22;7680;48.800;9.680;2024-03-06T17:06:14;7.40;99.90
15160;DHT22;7680;48.800;9.680;2024-03-06T17:11:18;7.40;99.90
15160;DHT22;7680;48.800;9.680;2024-03-06T17:16:22;7.30;99.90
15160;DHT22;7680;48.800;9.680;2024-03-06T17:21:25;7.30;99.90
15160;DHT22;7680;48.800;9.680;2024-03-06T17:26:29;7.30;99.90
15160;DHT22;7680;48.800;9.680;2024-03-06T17:31:33;7.20;99.90
15160;DHT22;7680;48.800;9.680;2024-03-06T17:36:37;7.20;99.90
15160;DHT22;7680;48.800;9.680;2024-03-06T17:41:43;7.20;99.90
15160;DHT22;7680;48.800;9.680;2024-03-06T17:46:46;7.20;99.90
15160;DHT22;7680;48.800;9.680;2024-03-06T17:51:50;7.20;99.90
15160;DHT22;7680;48.800;9.680;2024-03-06T17:56:58;7.20;99.90
15160;DHT22;7680;48.800;9.680;2024-03-06T18:02:01;7.20;99.90
15160;DHT22;7680;48.800;9.680;2024-03-06T18:07:04;7.20;99.90
15160;DHT22;7680;48.800;9.680;2024-03-06T18:12:09;7.20;99.90
15160;DHT22;7680;48.800;9.680;2024-03-06T18:17:12;7.20;99.90
15160;DHT22;7680;48.800;9.680;2024-03-06T18:22:15;7.20;99.90
15160;DHT22;7680;48.800;9.680;2024-03-06T18:27:20;7.10;99.90
15160;DHT22;7680;48.800;9.680;2024-03-06T18:32:24;7.10;99.90
15160;DHT22;7680;48.800;9.680;2024-03-06T18:37:27;7.10;99.90
15160;DHT22;7680;48.800;9.680;2024-03-06T18:42:31;7.00;99.90
15160;DHT22;7680;48.800;9.680;2024-03-06T18:47:35;7.00;99.90
15160;DHT22;7680;48.800;9.680;2024-03-06T18:52:38;7.00;99.90
15160;DHT22;7680;48.800;9.680;2024-03-06T18:57:43;6.90;99.90
15160;DHT22;7680;48.800;9.680;2024-03-06T19:02:46;6.90;99.90
15160;DHT22;7680;48.800;9.680;2024-03-06T19:07:51;6.90;99.90
15160;DHT22;7680;48.800;9.680;2024-03-06T19:12:56;6.90;99.90
15160;DHT22;7680;48.800;9.680;2024-03-06T19:17:59;6.90;99.90
15160;DHT22;7680;48.800;9.680;2024-03-06T19:23:03;6.90;99.90
15160;DHT22;7680;48.800;9.680;2024-03-06T19:28:08;6.90;99.90
15160;DHT22;7680;48.800;9.680;2024-03-06T19:33:11;6.90;99.90
15160;DHT22;7680;48.800;9.680;2024-03-06T19:38:14;6.90;99.90
15160;DHT22;7680;48.800;9.680;2024-03-06T19:43:21;6.90;99.90
15160;DHT22;7680;48.800;9.680;2024-03-06T19:48:24;6.90;99.90
15160;DHT22;7680;48.800;9.680;2024-03-06T19:53:28;6.80;99.90
15160;DHT22;7680;48.800;9.680;2024-03-06T19:58:32;6.80;99.90
15160;DHT22;7680;48.800;9.680;2024-03-06T20:03:36;6.70;99.90
15160;DHT22;7680;48.800;9.680;2024-03-06T20:08:39;6.70;99.90
15160;DHT22;7680;48.800;9.680;2024-03-06T20:13:43;6.70;99.90
15160;DHT22;7680;48.800;9.680;2024-03-06T20:18:46;6.70;99.90
15160;DHT22;7680;48.800;9.680;2024-03-06T20:23:50;6.60;99.90
15160;DHT22;7680;48.800;9.680;2024-03-06T20:28:54;6.50;99.90
15160;DHT22;7680;48.800;9.680;2024-03-06T20:33:58;6.60;99.90
15160;DHT22;7680;48.800;9.680;2024-03-06T20:39:01;6.60;99.90
15160;DHT22;7680;48.800;9.680;2024-03-06T20:44:05;6.60;99.90
15160;DHT22;7680;48.800;9.680;2024-03-06T20:49:09;6.60;99.90
15160;DHT22;7680;48.800;9.680;2024-03-06T20:54:12;6.60;99.90
15160;DHT22;7680;48.800;9.680;2024-03-06T20:59:16;6.60;99.90
15160;DHT22;7680;48.800;9.680;2024-03-06T21:04:20;6.40;99.90
15160;DHT22;7680;48.800;9.680;2024-03-06T21:09:24;6.30;99.90
15160;DHT22;7680;48.800;9.680;2024-03-06T21:14:29;6.30;99.90
15160;DHT22;7680;48.800;9.680;2024-03-06T21:19:35;6.40;99.90
15160;DHT22;7680;48.800;9.680;2024-03-06T21:24:39;6.30;99.90
15160;DHT22;7680;48.800;9.680;2024-03-06T21:29:45;6.30;99.90
15160;DHT22;7680;48.800;9.680;2024-03-06T21:34:49;6.40;99.90
15160;DHT22;7680;48.800;9.680;2024-03-06T21:39:52;6.40;99.90
15160;DHT22;7680;48.800;9.680;2024-03-06T21:44:57;6.40;99.90
15160;DHT22;7680;48.800;9.680;2024-03-06T21:50:00;6.40;99.90
15160;DHT22;7680;48.800;9.680;2024-03-06T21:55:08;6.40;99.90
15160;DHT22;7680;48.800;9.680;2024-03-06T22:00:13;6.20;99.90
15160;DHT22;7680;48.800;9.680;2024-03-06T22:05:18;6.20;99.90
15160;DHT22;7680;48.800;9.680;2024-03-06T22:10:23;6.20;99.90
15160;DHT22;7680;48.800;9.680;2024-03-06T22:15:28;6.10;99.90
15160;DHT22;7680;48.800;9.680;2024-03-06T22:20:32;6.00;99.90
15160;DHT22;7680;48.800;9.680;2024-03-06T22:25:35;6.00;99.90
15160;DHT22;7680;48.800;9.680;2024-03-06T22:30:40;5.90;99.90
15160;DHT22;7680;48.800;9.680;2024-03-06T22:35:45;5.90;99.90
15160;DHT22;7680;48.800;9.680;2024-03-06T22:40:48;5.70;99.90
15160;DHT22;7680;48.800;9.680;2024-03-06T22:45:52;5.60;99.90
15160;DHT22;7680;48.800;9.680;2024-03-06T22:50:55;5.50;99.90
15160;DHT22;7680;48.800;9.680;2024-03-06T22:55:59;5.40;99.90
15160;DHT22;7680;48.800;9.680;2024-03-06T23:01:05;5.10;99.90
15160;DHT22;7680;48.800;9.680;2024-03-06T23:06:09;5.00;99.90
15160;DHT22;7680;48.800;9.680;2024-03-06T23:11:13;5.00;99.90
15160;DHT22;7680;48.800;9.680;2024-03-06T23:16:17;4.90;99.90
15160;DHT22;7680;48.800;9.680;2024-03-06T23:21:21;4.90;99.90
15160;DHT22;7680;48.800;9.680;2024-03-06T23:26:24;4.90;99.90
15160;DHT22;7680;48.800;9.680;2024-03-06T23:31:29;4.80;99.90
15160;DHT22;7680;48.800;9.680;2024-03-06T23:36:32;4.80;99.90
15160;DHT22;7680;48.800;9.680;2024-03-06T23:41:35;4.60;99.90
15160;DHT22;7680;48.800;9.680;2024-03-06T23:46:40;4.70;99.90
15160;DHT22;7680;48.800;9.680;2024-03-06T23:51:45;4.60;99.90
15160;DHT22;7680;48.800;9.680;2024-03-06T23:56:50;4.50;99.90
